Terminal Aerodrome Forecast
Issued by NWS

Home | Current Version | Previous Version | Text Only | Print | Product List | Glossary On
Versions: 1 2 3 4 5 6 7 8 9 10 11 12 13 14 15 16 17
000
FTUS45 KABQ 282100 AAA
TAFSAF
TAF AMD
KSAF 282150Z 2822/2918 21011KT P6SM VCSH BKN060
     FM282300 17011KT P6SM VCTS SCT060CB BKN120
      TEMPO 2900/2902 VRB15G25KT 4SM -TSRA BKN040CB
     FM290200 14013G20KT P6SM VCSH BKN080
      TEMPO 2902/2906 -SHRA BKN050
     FM291100 14007KT P6SM BKN030
     FM291500 25007KT P6SM SCT040=

USA.gov is the U.S. government's official web portal to all federal, state and local government web resources and services.